Portada
METAR-TAF:

METAR-TAF

Aeroports :

Làrnaca, Xipre

latitud: 34-53N, longitud: 033-38E, altitud: 2 m

Observació

L'informe es va fer fa 59 minuts, a les 17:00 UTC
Vent 9 kt del Oest/Sud-Oest
Temperatura 15°C
Humitat 77%
Pressió 1015 hPa
Visibilitat 10 km o més
Núvols disperses a una alçada de 3000 ft
Cel ennuvolat a una alçada de 4000 ft

METAR: LCLK 191700Z 25009KT 9999 SCT030 BKN040 15/11 Q1015 NOSIG

Hora: 19:59 (17:59 UTC)

Pronòstic

L'informe es va fer fa 29 minuts, a les 17:30 UTC
Pronòstic vàlid del 19 a les 18 UTC al 20 a les 18 UTC
Vent 6 kt del Nord-Oest
Visibilitat 10 km o més
Escasses núvols a una alçada de 2000 ft
Evolucionant progressivament
l' 20 a les 07 UTC al 20 a les 10 UTC
Vent 10 kt del Sud/Sud-Oest
Evolucionant progressivament
l' 20 a les 16 UTC al 20 a les 20 UTC
Vent 6 kt del Nord-Oest

TAF: LCLK 191730Z 1918/2018 32006KT 9999 FEW020 BECMG 2007/2010 20010KT BECMG 2016/2020 32006KT

Observacions i pronòstics meteorològics de més de 4000 aeroports (METAR i TAF).

Les estacions disponibles són els punts grocs i vermells al mapa.

Posi el ratolí al punt desitjat per veure el nom de l'estació.

Feu clic per veure les observacions i els pronòstics meteorològics.

Per canviar el mapa: feu clic els botons verds amb una creu de color negre per apropar; al botó verd amb un guió per allunyar la imatge; o en les fletxes verdes per a mapes adjacents.


METAR-TAF: